createdAt,value
2019-05-10T00:05:16.671Z,10.00
2019-05-10T00:11:21.322Z,8.80
2019-05-10T00:14:56.604Z,8.80
2019-05-10T00:17:41.287Z,8.80
2019-05-10T00:20:30.327Z,8.80
2019-05-10T00:23:14.512Z,8.80
2019-05-10T00:26:02.246Z,10.20
2019-05-10T00:28:41.177Z,9.80
2019-05-10T00:31:48.732Z,10.40
2019-05-10T00:34:40.951Z,8.70
2019-05-10T00:41:04.605Z,10.30
2019-05-10T00:47:28.948Z,9.50
2019-05-10T00:50:04.132Z,8.90
2019-05-10T00:55:46.643Z,8.90
2019-05-10T00:58:35.210Z,8.80
2019-05-10T01:01:25.400Z,8.90
2019-05-10T01:04:44.295Z,8.80
2019-05-10T01:10:48.673Z,8.80
2019-05-10T01:13:40.472Z,8.80
2019-05-10T01:16:21.521Z,8.70
2019-05-10T01:25:34.586Z,8.60
2019-05-10T01:28:09.621Z,8.70
2019-05-10T01:33:48.726Z,8.60
2019-05-10T01:36:46.207Z,8.60
2019-05-10T01:39:27.613Z,8.60
2019-05-10T01:42:31.717Z,8.70
2019-05-10T01:45:38.071Z,8.70
2019-05-10T01:48:26.631Z,9.40
2019-05-10T01:51:27.903Z,8.70
2019-05-10T01:57:16.136Z,7.60
2019-05-10T01:59:50.567Z,8.80
2019-05-10T02:02:38.302Z,8.70
2019-05-10T02:08:26.127Z,8.80
2019-05-10T02:11:10.401Z,8.70
2019-05-10T02:13:50.892Z,8.90
2019-05-10T02:19:24.684Z,8.70
2019-05-10T02:22:10.337Z,8.70
2019-05-10T02:24:48.077Z,8.90
2019-05-10T02:27:19.049Z,8.70
2019-05-10T02:30:22.564Z,8.90
2019-05-10T02:33:03.669Z,8.90
2019-05-10T02:35:39.956Z,8.90
2019-05-10T02:38:36.473Z,9.00
2019-05-10T02:48:02.475Z,10.40
2019-05-10T02:50:41.163Z,9.20
2019-05-10T02:53:51.130Z,9.60
2019-05-10T02:56:30.187Z,9.20
2019-05-10T03:01:58.046Z,9.20
2019-05-10T03:04:46.140Z,9.10
2019-05-10T03:07:51.244Z,8.40
2019-05-10T03:13:17.554Z,9.10
2019-05-10T03:16:13.657Z,9.20
2019-05-10T03:18:50.024Z,8.60
2019-05-10T03:21:43.804Z,9.00
2019-05-10T03:24:33.217Z,9.10
2019-05-10T03:27:44.064Z,9.20
2019-05-10T03:30:39.715Z,9.20
2019-05-10T03:36:46.988Z,9.20
2019-05-10T03:43:31.775Z,9.40
2019-05-10T03:46:06.777Z,9.40
2019-05-10T03:52:16.344Z,10.00
2019-05-10T03:54:55.936Z,10.50
2019-05-10T03:57:44.989Z,9.40
2019-05-10T04:00:33.277Z,9.50
2019-05-10T04:03:19.255Z,9.50
2019-05-10T04:06:32.031Z,9.60
2019-05-10T04:09:40.233Z,9.60
2019-05-10T04:15:35.778Z,9.20
2019-05-10T04:18:03.222Z,9.80
2019-05-10T04:20:30.247Z,9.80
2019-05-10T04:22:57.191Z,9.90
2019-05-10T04:25:24.214Z,9.90
2019-05-10T04:27:51.340Z,9.90
2019-05-10T04:30:18.908Z,9.80
2019-05-10T04:32:45.858Z,9.90
2019-05-10T04:35:13.099Z,10.60
2019-05-10T04:37:39.939Z,9.90
2019-05-10T04:40:07.112Z,9.90
2019-05-10T04:42:34.225Z,10.00
2019-05-10T04:45:01.186Z,10.20
2019-05-10T04:47:33.304Z,10.20
2019-05-10T04:50:00.552Z,10.40
2019-05-10T04:52:27.831Z,10.50
2019-05-10T04:54:55.003Z,10.70
2019-05-10T04:57:21.986Z,10.80
2019-05-10T04:59:53.849Z,10.90
2019-05-10T05:02:22.401Z,11.10
2019-05-10T05:04:50.300Z,11.20
2019-05-10T05:07:17.422Z,11.20
2019-05-10T05:09:44.363Z,11.20
2019-05-10T05:12:11.491Z,11.30
2019-05-10T05:14:39.014Z,11.30
2019-05-10T05:17:07.044Z,11.40
2019-05-10T05:19:36.048Z,11.50
2019-05-10T05:22:03.153Z,11.50
2019-05-10T05:24:30.545Z,11.60
2019-05-10T05:26:57.820Z,11.60
2019-05-10T05:29:32.359Z,11.70
2019-05-10T05:32:01.168Z,11.90
2019-05-10T05:34:34.829Z,12.10
2019-05-10T05:37:01.971Z,12.40
2019-05-10T05:39:29.018Z,12.60
2019-05-10T05:41:57.038Z,12.80
2019-05-10T05:44:26.074Z,13.90
2019-05-10T05:46:53.244Z,13.30
2019-05-10T05:49:21.225Z,13.40
2019-05-10T05:51:48.210Z,13.60
2019-05-10T05:54:20.493Z,13.70
2019-05-10T05:56:44.576Z,13.80
2019-05-10T05:59:17.611Z,14.10
2019-05-10T06:01:42.790Z,14.30
2019-05-10T06:04:12.718Z,14.70
2019-05-10T06:06:39.500Z,15.10
2019-05-10T06:09:07.582Z,15.20
2019-05-10T06:11:35.790Z,15.40
2019-05-10T06:14:10.497Z,15.40
2019-05-10T06:16:34.393Z,15.30
2019-05-10T06:19:01.539Z,15.10
2019-05-10T06:21:28.596Z,14.80
2019-05-10T06:23:59.285Z,14.70
2019-05-10T06:26:28.643Z,14.50
2019-05-10T06:29:01.312Z,14.20
2019-05-10T06:31:24.462Z,14.10
2019-05-10T06:33:51.526Z,14.10
2019-05-10T06:36:18.682Z,14.20
2019-05-10T06:38:45.722Z,13.90
2019-05-10T06:41:16.623Z,13.70
2019-05-10T06:43:45.594Z,13.60
2019-05-10T06:46:11.674Z,13.40
2019-05-10T06:48:39.125Z,13.50
2019-05-10T06:51:09.760Z,13.50
2019-05-10T06:53:42.180Z,13.40
2019-05-10T06:56:06.623Z,13.40
2019-05-10T06:58:36.282Z,13.00
2019-05-10T07:01:03.047Z,13.10
2019-05-10T07:03:30.595Z,13.10
2019-05-10T07:05:58.144Z,12.90
2019-05-10T07:08:25.881Z,12.90
2019-05-10T07:10:53.180Z,12.70
2019-05-10T07:13:20.494Z,12.60
2019-05-10T07:15:47.825Z,12.50
2019-05-10T07:18:16.704Z,12.60
2019-05-10T07:20:45.325Z,12.60
2019-05-10T07:23:12.665Z,12.50
2019-05-10T07:25:44.001Z,12.60
2019-05-10T07:28:15.496Z,12.60
2019-05-10T07:30:41.346Z,12.80
2019-05-10T07:33:07.789Z,13.10
2019-05-10T07:35:36.844Z,13.60
2019-05-10T07:38:03.946Z,13.60
2019-05-10T07:40:31.161Z,13.80
2019-05-10T07:42:58.922Z,14.00
2019-05-10T07:45:27.361Z,14.20
2019-05-10T07:47:54.856Z,14.10
2019-05-10T07:50:21.839Z,14.40
2019-05-10T07:52:49.150Z,15.00
2019-05-10T07:55:18.602Z,15.20
2019-05-10T07:57:45.186Z,15.30
2019-05-10T08:00:12.606Z,15.50
2019-05-10T08:02:44.462Z,15.30
2019-05-10T08:05:14.018Z,15.20
2019-05-10T08:07:38.690Z,15.40
2019-05-10T08:10:08.760Z,15.60
2019-05-10T08:12:43.765Z,16.00
2019-05-10T08:15:08.439Z,16.20
2019-05-10T08:17:35.418Z,16.40
2019-05-10T08:20:09.025Z,16.30
2019-05-10T08:22:41.326Z,16.20
2019-05-10T08:25:04.548Z,15.90
2019-05-10T08:27:32.688Z,15.50
2019-05-10T08:30:25.521Z,15.00
2019-05-10T08:32:32.286Z,14.50
2019-05-10T08:34:59.475Z,14.10
2019-05-10T08:37:33.528Z,14.00
2019-05-10T08:39:56.642Z,13.90
2019-05-10T08:42:40.110Z,14.00
2019-05-10T08:45:03.199Z,14.60
2019-05-10T08:47:26.723Z,15.10
2019-05-10T08:50:08.029Z,15.80
2019-05-10T08:52:26.857Z,16.10
2019-05-10T08:54:49.624Z,15.60
2019-05-10T08:57:18.747Z,14.90
2019-05-10T08:59:45.814Z,14.80
2019-05-10T09:02:14.681Z,15.40
2019-05-10T09:04:50.223Z,16.10
2019-05-10T09:07:13.701Z,16.10
2019-05-10T09:09:45.887Z,16.10
2019-05-10T09:12:12.062Z,16.20
2019-05-10T09:14:39.221Z,16.90
2019-05-10T09:17:06.251Z,17.10
2019-05-10T09:19:40.602Z,16.90
2019-05-10T09:22:02.587Z,17.00
2019-05-10T09:24:29.700Z,17.60
2019-05-10T09:26:57.821Z,18.00
2019-05-10T09:29:27.485Z,18.40
2019-05-10T09:31:54.955Z,18.40
2019-05-10T09:34:25.928Z,18.60
2019-05-10T09:36:52.940Z,18.60
2019-05-10T09:39:22.527Z,18.30
2019-05-10T09:41:52.503Z,17.80
2019-05-10T09:44:19.910Z,17.00
2019-05-10T09:46:48.101Z,16.50
2019-05-10T09:49:33.234Z,16.00
2019-05-10T09:52:12.615Z,15.70
2019-05-10T09:54:37.941Z,16.20
2019-05-10T09:57:08.040Z,15.00
2019-05-10T09:59:36.780Z,14.90
2019-05-10T10:02:14.296Z,14.80
2019-05-10T10:04:37.178Z,14.70
2019-05-10T10:07:05.147Z,14.70
2019-05-10T10:09:41.992Z,14.50
2019-05-10T10:12:03.696Z,14.30
2019-05-10T10:14:42.921Z,14.30
2019-05-10T10:17:03.575Z,14.20
2019-05-10T10:19:32.853Z,14.20
2019-05-10T10:22:00.509Z,14.50
2019-05-10T10:24:30.221Z,15.80
2019-05-10T10:26:59.182Z,15.00
2019-05-10T10:29:28.870Z,14.90
2019-05-10T10:31:58.828Z,14.60
2019-05-10T10:34:27.352Z,14.40
2019-05-10T10:36:58.036Z,14.20
2019-05-10T10:39:27.617Z,14.00
2019-05-10T10:41:56.919Z,13.80
2019-05-10T10:44:23.408Z,13.70
2019-05-10T10:46:52.415Z,13.70
2019-05-10T10:49:23.065Z,14.00
2019-05-10T10:51:50.261Z,14.30
2019-05-10T10:54:22.388Z,14.50
2019-05-10T10:56:50.331Z,14.40
2019-05-10T10:59:18.325Z,14.20
2019-05-10T11:01:56.633Z,14.10
2019-05-10T11:04:17.954Z,14.10
2019-05-10T11:06:45.040Z,14.20
2019-05-10T11:09:11.966Z,14.30
2019-05-10T11:11:44.284Z,14.70
2019-05-10T11:14:11.063Z,15.30
2019-05-10T11:16:38.239Z,16.90
2019-05-10T11:19:11.121Z,18.10
2019-05-10T11:21:34.906Z,17.50
2019-05-10T11:24:02.237Z,16.90
2019-05-10T11:26:36.825Z,16.70
2019-05-10T11:29:01.417Z,16.60
2019-05-10T11:31:31.322Z,16.40
2019-05-10T11:34:01.549Z,16.20
2019-05-10T11:36:31.197Z,16.30
2019-05-10T11:39:24.779Z,16.60
2019-05-10T11:41:42.687Z,17.00
2019-05-10T11:44:12.135Z,16.90
2019-05-10T11:46:41.623Z,16.40
2019-05-10T11:49:10.685Z,16.00
2019-05-10T11:51:37.714Z,15.30
2019-05-10T11:54:05.155Z,14.80
2019-05-10T11:56:34.249Z,14.00
2019-05-10T11:59:02.690Z,13.40
2019-05-10T12:01:32.598Z,13.10
2019-05-10T12:04:04.960Z,12.80
2019-05-10T12:06:41.290Z,12.40
2019-05-10T12:09:17.312Z,12.10
2019-05-10T12:11:51.630Z,11.80
2019-05-10T12:14:18.299Z,11.60
2019-05-10T12:16:47.546Z,11.50
2019-05-10T12:19:20.942Z,11.50
2019-05-10T12:35:51.043Z,12.10
2019-05-10T13:52:40.821Z,14.70
2019-05-10T14:02:54.956Z,12.50
2019-05-10T14:05:39.444Z,15.20
2019-05-10T14:08:48.391Z,14.80
2019-05-10T14:11:50.418Z,13.50
2019-05-10T14:24:59.115Z,14.40
2019-05-10T14:48:27.817Z,11.80
2019-05-10T15:15:39.427Z,10.40
2019-05-10T16:14:17.990Z,11.50
2019-05-10T16:16:45.158Z,11.30
2019-05-10T16:19:18.386Z,11.60
2019-05-10T16:21:46.840Z,11.60
2019-05-10T16:24:13.475Z,11.60
2019-05-10T16:26:40.939Z,11.70
2019-05-10T16:29:08.006Z,11.70
2019-05-10T16:31:35.232Z,11.90
2019-05-10T16:34:02.098Z,12.10
2019-05-10T16:36:30.210Z,11.80
2019-05-10T16:39:01.149Z,11.80
2019-05-10T16:41:27.052Z,11.70
2019-05-10T16:43:57.934Z,11.50
2019-05-10T16:46:23.184Z,11.40
2019-05-10T16:48:50.353Z,11.30
2019-05-10T16:51:17.421Z,11.30
2019-05-10T16:53:45.995Z,11.20
2019-05-10T16:56:18.519Z,11.20
2019-05-10T16:58:42.189Z,11.30
2019-05-10T17:01:09.277Z,11.20
2019-05-10T17:03:37.531Z,11.10
2019-05-10T17:06:05.736Z,11.10
2019-05-10T17:08:36.576Z,11.20
2019-05-10T17:11:09.350Z,11.10
2019-05-10T17:13:36.462Z,11.10
2019-05-10T17:16:05.383Z,11.10
2019-05-10T17:18:33.523Z,11.20
2019-05-10T17:21:02.653Z,10.70
2019-05-10T17:23:29.571Z,11.30
2019-05-10T17:25:56.729Z,11.30
2019-05-10T17:28:23.792Z,11.20
2019-05-10T17:30:50.989Z,11.20
2019-05-10T17:33:18.290Z,11.00
2019-05-10T17:35:45.529Z,11.00
2019-05-10T17:38:14.360Z,11.00
2019-05-10T17:40:42.344Z,10.70
2019-05-10T17:43:14.168Z,10.90
2019-05-10T17:45:42.635Z,10.80
2019-05-10T17:48:10.192Z,10.80
2019-05-10T17:50:37.477Z,10.70
2019-05-10T17:53:04.798Z,10.70
2019-05-10T17:55:32.283Z,10.80
2019-05-10T17:57:59.288Z,10.60
2019-05-10T18:00:26.358Z,10.00
2019-05-10T18:02:53.761Z,10.60
2019-05-10T18:05:22.581Z,10.60
2019-05-10T18:07:49.730Z,10.60
2019-05-10T18:10:17.097Z,10.60
2019-05-10T18:12:44.595Z,10.50
2019-05-10T18:15:11.707Z,10.40
2019-05-10T18:17:38.842Z,10.40
2019-05-10T18:20:06.057Z,10.60
2019-05-10T18:22:42.285Z,10.40
2019-05-10T18:25:03.617Z,10.40
2019-05-10T18:27:32.248Z,10.50
2019-05-10T18:29:59.892Z,10.40
2019-05-10T18:32:29.167Z,10.40
2019-05-10T18:34:56.039Z,10.30
2019-05-10T18:37:23.441Z,10.30
2019-05-10T18:39:52.919Z,10.30
2019-05-10T18:42:25.523Z,10.30
2019-05-10T18:44:51.921Z,10.20
2019-05-10T18:47:19.142Z,10.00
2019-05-10T18:49:46.297Z,10.20
2019-05-10T18:52:17.086Z,10.30
2019-05-10T18:54:47.622Z,10.20
2019-05-10T18:57:19.469Z,10.10
2019-05-10T18:59:50.855Z,10.10
2019-05-10T19:02:20.205Z,10.10
2019-05-10T19:04:51.849Z,10.00
2019-05-10T19:07:23.843Z,10.10
2019-05-10T19:09:54.327Z,10.00
2019-05-10T19:12:23.791Z,9.90
2019-05-10T19:15:02.132Z,9.90
2019-05-10T19:17:35.346Z,9.90
2019-05-10T19:20:03.373Z,9.80
2019-05-10T19:22:32.614Z,9.80
2019-05-10T19:25:16.208Z,9.90
2019-05-10T19:27:50.531Z,9.90
2019-05-10T19:30:20.687Z,9.80
2019-05-10T19:32:56.390Z,9.70
2019-05-10T19:35:29.649Z,9.80
2019-05-10T19:37:56.393Z,9.70
2019-05-10T19:40:28.277Z,9.70
2019-05-10T19:43:20.921Z,9.70
2019-05-10T19:45:51.222Z,9.60
2019-05-10T19:48:18.553Z,9.40
2019-05-10T19:50:47.459Z,9.20
2019-05-10T19:53:15.040Z,9.20
2019-05-10T19:55:42.334Z,9.10
2019-05-10T19:58:09.809Z,8.90
2019-05-10T20:00:38.073Z,8.80
2019-05-10T20:03:06.005Z,8.80
2019-05-10T20:05:35.522Z,8.70
2019-05-10T20:08:03.593Z,8.60
2019-05-10T20:10:43.946Z,8.50
2019-05-10T20:13:45.381Z,8.50
2019-05-10T20:16:21.376Z,8.40
2019-05-10T20:18:50.108Z,8.30
2019-05-10T20:21:28.664Z,8.30
2019-05-10T20:24:07.746Z,8.20
2019-05-10T20:26:41.269Z,8.10
2019-05-10T20:29:15.284Z,8.10
2019-05-10T20:31:54.746Z,8.10
2019-05-10T20:34:28.411Z,8.10
2019-05-10T20:36:57.026Z,8.10
2019-05-10T20:39:24.812Z,8.10
2019-05-10T20:41:52.626Z,8.00
2019-05-10T20:44:21.006Z,8.00
2019-05-10T20:46:49.348Z,8.00
2019-05-10T20:49:16.967Z,7.90
2019-05-10T20:51:44.282Z,8.00
2019-05-10T20:54:15.053Z,7.90
2019-05-10T20:56:44.180Z,7.80
2019-05-10T20:59:13.871Z,7.80
2019-05-10T21:01:43.227Z,8.40
2019-05-10T21:04:10.386Z,7.50
2019-05-10T21:06:38.628Z,7.40
2019-05-10T21:09:06.579Z,7.40
2019-05-10T21:11:41.822Z,7.40
2019-05-10T21:14:09.429Z,7.40
2019-05-10T21:16:38.996Z,7.60
2019-05-10T21:19:07.285Z,7.30
2019-05-10T21:21:34.602Z,7.20
2019-05-10T21:24:01.695Z,7.30
2019-05-10T21:26:30.005Z,7.20
2019-05-10T21:28:59.531Z,7.10
2019-05-10T21:31:26.639Z,7.10
2019-05-10T21:34:08.714Z,7.10
2019-05-10T21:36:24.876Z,6.90
2019-05-10T21:38:52.176Z,7.00
2019-05-10T21:41:19.482Z,7.00
2019-05-10T21:43:46.951Z,6.90
2019-05-10T21:46:18.008Z,6.80
2019-05-10T21:48:45.048Z,6.80
2019-05-10T21:51:12.327Z,6.70
2019-05-10T21:53:39.455Z,6.70
2019-05-10T21:56:07.942Z,6.80
2019-05-10T21:58:35.263Z,6.70
2019-05-10T22:01:03.424Z,6.60
2019-05-10T22:03:31.922Z,6.70
2019-05-10T22:05:59.393Z,6.60
2019-05-10T22:08:27.166Z,6.50
2019-05-10T22:10:54.658Z,6.50
2019-05-10T22:13:22.813Z,6.40
2019-05-10T22:15:50.278Z,7.50
2019-05-10T22:18:17.157Z,6.50
2019-05-10T22:20:44.266Z,7.00
2019-05-10T22:23:11.309Z,6.50
2019-05-10T22:25:38.335Z,6.50
2019-05-10T22:28:05.489Z,6.40
2019-05-10T22:30:32.563Z,6.40
2019-05-10T22:33:00.426Z,6.40
2019-05-10T22:35:28.405Z,6.50
2019-05-10T22:37:55.336Z,6.40
2019-05-10T22:40:22.274Z,6.40
2019-05-10T22:42:49.275Z,6.30
2019-05-10T22:45:16.350Z,6.20
2019-05-10T22:47:43.419Z,6.10
2019-05-10T22:50:10.766Z,6.10
2019-05-10T22:52:37.704Z,6.10
2019-05-10T22:55:04.704Z,6.10
2019-05-10T22:57:31.722Z,6.10
2019-05-10T22:59:58.695Z,6.00
2019-05-10T23:02:25.615Z,6.00
2019-05-10T23:04:52.843Z,6.10
2019-05-10T23:07:19.834Z,6.10
2019-05-10T23:09:46.799Z,6.00
2019-05-10T23:12:13.663Z,6.00
2019-05-10T23:14:40.462Z,6.10
2019-05-10T23:17:07.730Z,6.10
2019-05-10T23:19:34.627Z,6.10
2019-05-10T23:22:01.564Z,6.10
2019-05-10T23:24:38.470Z,6.20
2019-05-10T23:27:05.706Z,6.10
2019-05-10T23:29:33.810Z,6.20
2019-05-10T23:32:02.245Z,6.20
2019-05-10T23:34:29.351Z,6.10
2019-05-10T23:36:56.492Z,6.00
2019-05-10T23:39:38.372Z,6.00
2019-05-10T23:41:52.531Z,6.00
2019-05-10T23:44:19.484Z,6.10
2019-05-10T23:46:46.689Z,6.10
2019-05-10T23:49:13.904Z,6.20
2019-05-10T23:51:40.861Z,6.20
2019-05-10T23:54:07.957Z,6.20
2019-05-10T23:56:34.943Z,6.20
2019-05-10T23:59:01.732Z,6.20
